createdAt,value
2019-03-25T00:01:17.217Z,101856.34
2019-03-25T00:03:48.226Z,101844.69
2019-03-25T00:06:19.255Z,101825.97
2019-03-25T00:09:03.237Z,101830.00
2019-03-25T00:11:23.052Z,101829.64
2019-03-25T00:13:54.053Z,101841.91
2019-03-25T00:16:24.992Z,101839.30
2019-03-25T00:18:55.841Z,101848.39
2019-03-25T00:21:26.696Z,101848.75
2019-03-25T00:23:57.720Z,101832.75
2019-03-25T00:26:28.737Z,101817.37
2019-03-25T00:28:59.711Z,101800.48
2019-03-25T00:31:30.727Z,101815.12
2019-03-25T00:34:01.779Z,101849.93
2019-03-25T00:36:32.828Z,101847.42
2019-03-25T00:39:04.140Z,101855.46
2019-03-25T00:41:35.056Z,101865.80
2019-03-25T00:44:06.147Z,101885.95
2019-03-25T00:46:37.094Z,101885.16
2019-03-25T00:49:08.111Z,101876.88
2019-03-25T00:51:39.065Z,101887.73
2019-03-25T00:54:10.083Z,101884.89
2019-03-25T00:56:41.078Z,101890.00
2019-03-25T00:59:12.045Z,101886.52
2019-03-25T01:01:42.929Z,101874.58
2019-03-25T01:04:13.875Z,101877.61
2019-03-25T01:06:44.818Z,101901.16
2019-03-25T01:09:15.768Z,101878.53
2019-03-25T01:11:49.268Z,101868.03
2019-03-25T01:14:19.562Z,101868.14
2019-03-25T01:16:50.535Z,101866.16
2019-03-25T01:19:21.475Z,101871.47
2019-03-25T01:21:52.840Z,101866.76
2019-03-25T01:24:23.937Z,101862.02
2019-03-25T01:26:54.876Z,101851.28
2019-03-25T01:29:25.754Z,101844.44
2019-03-25T01:31:56.782Z,101840.20
2019-03-25T01:34:27.742Z,101835.60
2019-03-25T01:36:58.757Z,101843.40
2019-03-25T01:39:29.879Z,101831.28
2019-03-25T01:42:00.831Z,101834.76
2019-03-25T01:44:31.829Z,101834.76
2019-03-25T01:47:02.890Z,101828.50
2019-03-25T01:49:33.821Z,101822.59
2019-03-25T01:52:04.682Z,101823.03
2019-03-25T01:54:35.631Z,101824.49
2019-03-25T01:57:07.822Z,101830.80
2019-03-25T01:59:38.777Z,101836.34
2019-03-25T02:02:09.769Z,101829.73
2019-03-25T02:04:40.727Z,101822.17
2019-03-25T02:07:12.151Z,101815.95
2019-03-25T02:09:43.029Z,101818.28
2019-03-25T02:12:14.018Z,101814.27
2019-03-25T02:14:44.891Z,101811.95
2019-03-25T02:17:15.912Z,101809.23
2019-03-25T02:19:46.877Z,101812.10
2019-03-25T02:22:18.010Z,101807.25
2019-03-25T02:24:49.259Z,101811.45
2019-03-25T02:27:20.195Z,101815.69
2019-03-25T02:29:51.143Z,101806.06
2019-03-25T02:32:22.042Z,101805.98
2019-03-25T02:34:52.872Z,101799.42
2019-03-25T02:37:23.924Z,101796.78
2019-03-25T02:39:54.877Z,101791.94
2019-03-25T02:42:25.820Z,101795.83
2019-03-25T02:44:56.685Z,101796.17
2019-03-25T02:47:27.609Z,101787.93
2019-03-25T02:49:58.504Z,101788.31
2019-03-25T02:52:29.474Z,101795.14
2019-03-25T02:55:00.654Z,101784.23
2019-03-25T02:57:31.637Z,101777.70
2019-03-25T03:00:02.581Z,101772.77
2019-03-25T03:02:33.540Z,101773.66
2019-03-25T03:05:04.685Z,101774.88
2019-03-25T03:07:35.639Z,101767.36
2019-03-25T03:10:08.385Z,101763.39
2019-03-25T03:12:39.380Z,101764.00
2019-03-25T03:15:10.432Z,101769.42
2019-03-25T03:17:41.385Z,101763.89
2019-03-25T03:20:12.694Z,101755.48
2019-03-25T03:22:43.644Z,101749.64
2019-03-25T03:25:14.725Z,101753.27
2019-03-25T03:27:45.888Z,101752.73
2019-03-25T03:30:16.894Z,101760.45
2019-03-25T03:32:47.869Z,101753.95
2019-03-25T03:35:18.791Z,101755.06
2019-03-25T03:37:49.670Z,101758.89
2019-03-25T03:40:20.611Z,101766.14
2019-03-25T03:42:51.568Z,101759.54
2019-03-25T03:45:22.595Z,101755.50
2019-03-25T03:47:53.677Z,101753.31
2019-03-25T03:50:28.938Z,101749.08
2019-03-25T03:53:00.249Z,101745.03
2019-03-25T03:55:32.576Z,101737.31
2019-03-25T03:58:03.829Z,101737.36
2019-03-25T04:00:36.455Z,101733.84
2019-03-25T04:03:07.792Z,101728.23
2019-03-25T04:05:38.723Z,101729.72
2019-03-25T04:08:09.738Z,101723.10
2019-03-25T04:10:40.856Z,101718.66
2019-03-25T04:13:11.715Z,101722.38
2019-03-25T04:15:42.818Z,101712.53
2019-03-25T04:18:13.847Z,101711.52
2019-03-25T04:20:44.874Z,101709.16
2019-03-25T04:23:15.924Z,101702.34
2019-03-25T04:25:46.797Z,101708.48
2019-03-25T04:28:17.720Z,101708.98
2019-03-25T04:30:48.657Z,101707.01
2019-03-25T04:33:19.504Z,101709.78
2019-03-25T04:35:50.539Z,101701.39
2019-03-25T04:38:21.530Z,101701.53
2019-03-25T04:40:52.397Z,101694.34
2019-03-25T04:43:23.334Z,101687.15
2019-03-25T04:45:54.371Z,101682.59
2019-03-25T04:48:25.377Z,101669.18
2019-03-25T04:50:56.326Z,101669.31
2019-03-25T04:53:27.277Z,101676.97
2019-03-25T04:55:58.311Z,101677.80
2019-03-25T04:58:38.732Z,101689.52
2019-03-25T05:01:15.577Z,101704.89
2019-03-25T05:03:46.583Z,101706.97
2019-03-25T05:06:17.681Z,101689.83
2019-03-25T05:08:48.595Z,101680.99
2019-03-25T05:11:30.328Z,101678.33
2019-03-25T05:13:52.309Z,101666.04
2019-03-25T05:16:23.393Z,101660.32
2019-03-25T05:18:54.375Z,101656.67
2019-03-25T05:21:25.226Z,101660.67
2019-03-25T05:23:56.089Z,101653.64
2019-03-25T05:26:26.966Z,101646.47
2019-03-25T05:28:57.958Z,101646.87
2019-03-25T05:31:28.899Z,101648.98
2019-03-25T05:33:59.859Z,101644.98
2019-03-25T05:36:30.720Z,101655.70
2019-03-25T05:39:01.607Z,101648.39
2019-03-25T05:41:32.575Z,101655.25
2019-03-25T05:44:03.592Z,101669.94
2019-03-25T05:46:34.662Z,101674.98
2019-03-25T05:49:05.614Z,101672.22
2019-03-25T05:51:36.648Z,101668.51
2019-03-25T05:54:07.699Z,101660.52
2019-03-25T05:56:38.558Z,101673.56
2019-03-25T05:59:09.519Z,101675.41
2019-03-25T06:01:40.474Z,101656.48
2019-03-25T06:04:11.426Z,101654.63
2019-03-25T06:06:42.362Z,101661.52
2019-03-25T06:09:13.254Z,101660.22
2019-03-25T06:11:44.273Z,101661.63
2019-03-25T06:14:15.419Z,101653.92
2019-03-25T06:16:46.563Z,101661.86
2019-03-25T06:19:17.836Z,101654.45
2019-03-25T06:21:50.867Z,101662.41
2019-03-25T06:24:21.887Z,101654.20
2019-03-25T06:26:52.764Z,101652.03
2019-03-25T06:29:23.986Z,101646.38
2019-03-25T06:31:55.042Z,101636.78
2019-03-25T06:34:25.950Z,101653.61
2019-03-25T06:36:56.962Z,101640.41
2019-03-25T06:39:28.073Z,101647.27
2019-03-25T06:41:59.216Z,101649.84
2019-03-25T06:44:30.374Z,101657.64
2019-03-25T06:47:01.381Z,101658.39
2019-03-25T06:49:32.493Z,101657.00
2019-03-25T06:52:03.549Z,101662.98
2019-03-25T06:54:34.505Z,101668.28
2019-03-25T06:57:05.549Z,101662.29
2019-03-25T06:59:36.456Z,101668.44
2019-03-25T07:02:07.804Z,101670.41
2019-03-25T07:04:38.850Z,101662.02
2019-03-25T07:07:09.766Z,101663.26
2019-03-25T07:10:48.670Z,101668.77
2019-03-25T07:13:20.450Z,101705.02
2019-03-25T07:15:51.392Z,101741.45
2019-03-25T07:18:22.473Z,101701.80
2019-03-25T07:20:53.586Z,101727.84
2019-03-25T07:23:24.636Z,101729.27
2019-03-25T07:25:55.695Z,101737.66
2019-03-25T07:28:26.680Z,101735.14
2019-03-25T07:30:57.838Z,101740.32
2019-03-25T07:33:28.925Z,101742.85
2019-03-25T07:35:59.887Z,101754.11
2019-03-25T07:38:30.885Z,101749.00
2019-03-25T07:41:01.849Z,101764.91
2019-03-25T07:43:33.199Z,101761.36
2019-03-25T07:46:04.250Z,101778.52
2019-03-25T07:48:35.213Z,101773.74
2019-03-25T07:51:07.490Z,101788.06
2019-03-25T07:53:38.496Z,101785.39
2019-03-25T07:56:09.422Z,101785.00
2019-03-25T07:58:40.505Z,101781.80
2019-03-25T08:01:11.505Z,101789.77
2019-03-25T08:03:42.482Z,101781.00
2019-03-25T08:06:13.451Z,101801.19
2019-03-25T08:08:44.480Z,101818.59
2019-03-25T08:11:15.430Z,101830.88
2019-03-25T08:13:46.364Z,101828.99
2019-03-25T08:16:17.519Z,101824.63
2019-03-25T08:18:48.413Z,101827.20
2019-03-25T08:21:19.468Z,101846.30
2019-03-25T08:23:50.630Z,101841.38
2019-03-25T08:26:21.665Z,101851.05
2019-03-25T08:28:52.651Z,101864.64
2019-03-25T08:31:24.376Z,101867.56
2019-03-25T08:33:55.467Z,101855.26
2019-03-25T08:36:26.486Z,101887.98
2019-03-25T08:38:57.389Z,101871.09
2019-03-25T08:41:28.341Z,101887.21
2019-03-25T08:43:59.323Z,101905.30
2019-03-25T08:46:30.325Z,101905.44
2019-03-25T08:49:01.353Z,101903.34
2019-03-25T08:51:32.307Z,101903.25
2019-03-25T08:54:03.446Z,101925.66
2019-03-25T08:56:34.702Z,101923.36
2019-03-25T08:59:05.691Z,101931.37
2019-03-25T09:01:36.566Z,101920.67
2019-03-25T09:04:07.884Z,101933.74
2019-03-25T09:06:38.978Z,101952.66
2019-03-25T09:09:10.550Z,101957.41
2019-03-25T09:11:41.546Z,101962.86
2019-03-25T09:14:12.484Z,101968.16
2019-03-25T09:16:43.418Z,101949.41
2019-03-25T09:19:14.455Z,101953.17
2019-03-25T09:21:45.575Z,101958.45
2019-03-25T09:24:16.527Z,101950.57
2019-03-25T09:26:47.558Z,101980.03
2019-03-25T09:29:18.591Z,101972.90
2019-03-25T09:31:49.537Z,101974.03
2019-03-25T09:34:20.629Z,101992.74
2019-03-25T09:36:51.698Z,101993.94
2019-03-25T09:39:22.715Z,102022.48
2019-03-25T09:41:53.734Z,102010.41
2019-03-25T09:44:24.635Z,102004.17
2019-03-25T09:46:55.742Z,102008.05
2019-03-25T09:49:26.671Z,102013.39
2019-03-25T09:51:57.555Z,102013.95
2019-03-25T09:54:28.484Z,102021.44
2019-03-25T09:56:59.504Z,102014.94
2019-03-25T09:59:30.604Z,102013.33
2019-03-25T10:02:01.540Z,102023.63
2019-03-25T10:04:32.596Z,102020.37
2019-03-25T10:07:03.686Z,102012.48
2019-03-25T10:09:34.634Z,102026.56
2019-03-25T10:12:05.667Z,102030.98
2019-03-25T10:14:36.641Z,102052.36
2019-03-25T10:17:07.780Z,102034.08
2019-03-25T10:19:38.806Z,102027.41
2019-03-25T10:22:09.827Z,102030.47
2019-03-25T10:24:40.998Z,102039.76
2019-03-25T10:27:11.929Z,102033.33
2019-03-25T10:29:42.948Z,102042.48
2019-03-25T10:32:13.971Z,102045.59
2019-03-25T10:34:45.034Z,102050.80
2019-03-25T10:37:15.971Z,102032.00
2019-03-25T10:39:46.906Z,102028.94
2019-03-25T10:42:17.762Z,102031.84
2019-03-25T10:44:48.724Z,102041.47
2019-03-25T10:47:19.825Z,102033.65
2019-03-25T10:49:51.033Z,102032.70
2019-03-25T10:52:22.046Z,102057.21
2019-03-25T10:54:53.160Z,102047.44
2019-03-25T10:57:24.149Z,102046.89
2019-03-25T10:59:55.163Z,102049.55
2019-03-25T11:02:26.221Z,102049.25
2019-03-25T11:04:57.229Z,102063.13
2019-03-25T11:07:29.475Z,102051.38
2019-03-25T11:10:00.683Z,102057.30
2019-03-25T11:12:31.642Z,102051.69
2019-03-25T11:15:02.746Z,102062.91
2019-03-25T11:17:33.697Z,102061.63
2019-03-25T11:20:04.813Z,102080.14
2019-03-25T11:22:35.829Z,102073.81
2019-03-25T11:25:08.746Z,102088.18
2019-03-25T11:27:39.772Z,102079.56
2019-03-25T11:30:12.504Z,102093.48
2019-03-25T11:32:43.510Z,102101.03
2019-03-25T11:35:15.482Z,102108.35
2019-03-25T11:37:46.481Z,102101.01
2019-03-25T11:40:17.912Z,102123.35
2019-03-25T11:42:48.991Z,102113.45
2019-03-25T11:47:23.856Z,102122.56
2019-03-25T11:49:54.879Z,102114.81
2019-03-25T11:52:29.489Z,102107.41
2019-03-25T11:55:00.982Z,102110.52
2019-03-25T11:57:32.165Z,102106.70
2019-03-25T12:00:03.209Z,102112.80
2019-03-25T12:02:34.175Z,102102.32
2019-03-25T12:05:05.494Z,102100.92
2019-03-25T12:07:36.429Z,102111.09
2019-03-25T12:10:08.169Z,102102.42
2019-03-25T12:12:39.491Z,102102.48
2019-03-25T12:15:11.198Z,102096.36
2019-03-25T12:17:42.245Z,102124.84
2019-03-25T12:20:13.964Z,102107.94
2019-03-25T12:22:44.871Z,102106.36
2019-03-25T12:25:15.920Z,102088.88
2019-03-25T12:27:47.343Z,102101.57
2019-03-25T12:30:27.922Z,102160.60
2019-03-25T12:33:03.971Z,102146.73
2019-03-25T12:35:31.739Z,102151.08
2019-03-25T12:38:02.810Z,102153.77
2019-03-25T12:40:33.932Z,102145.02
2019-03-25T12:43:04.935Z,102146.56
2019-03-25T12:45:35.920Z,102137.34
2019-03-25T12:48:07.766Z,102117.44
2019-03-25T12:50:38.850Z,102131.21
2019-03-25T12:53:51.662Z,102146.80
2019-03-25T12:56:22.654Z,102137.38
2019-03-25T12:58:53.596Z,102163.82
2019-03-25T13:01:24.476Z,102157.55
2019-03-25T13:03:55.445Z,102156.20
2019-03-25T13:06:26.661Z,102161.15
2019-03-25T13:09:00.062Z,102177.73
2019-03-25T13:11:30.338Z,102165.31
2019-03-25T13:14:01.271Z,102173.16
2019-03-25T13:16:32.311Z,102165.06
2019-03-25T13:19:03.262Z,102183.89
2019-03-25T13:21:34.202Z,102192.36
2019-03-25T13:26:35.967Z,102204.88
2019-03-25T13:29:07.499Z,102197.42
2019-03-25T13:31:38.408Z,102190.83
2019-03-25T13:34:09.273Z,102208.05
2019-03-25T13:36:40.227Z,102218.17
2019-03-25T13:39:11.200Z,102208.56
2019-03-25T13:41:42.318Z,102187.81
2019-03-25T13:44:13.288Z,102221.73
2019-03-25T13:46:44.314Z,102232.12
2019-03-25T13:49:15.247Z,102239.84
2019-03-25T13:51:46.125Z,102219.19
2019-03-25T13:54:17.151Z,102247.61
2019-03-25T13:56:48.196Z,102246.14
2019-03-25T13:59:19.124Z,102242.20
2019-03-25T14:01:49.993Z,102246.56
2019-03-25T14:04:22.535Z,102262.22
2019-03-25T14:06:53.467Z,102268.09
2019-03-25T14:09:24.424Z,102264.81
2019-03-25T14:11:55.396Z,102256.06
2019-03-25T14:14:26.492Z,102275.53
2019-03-25T14:16:57.632Z,102278.38
2019-03-25T14:19:29.459Z,102289.48
2019-03-25T14:22:00.569Z,102280.80
2019-03-25T14:24:31.429Z,102288.45
2019-03-25T14:27:02.769Z,102287.80
2019-03-25T14:29:33.800Z,102288.52
2019-03-25T14:32:04.682Z,102305.47
2019-03-25T14:34:44.451Z,102322.25
2019-03-25T14:37:08.370Z,102318.14
2019-03-25T14:39:39.339Z,102327.09
2019-03-25T14:42:10.331Z,102334.19
2019-03-25T14:44:41.242Z,102348.01
2019-03-25T14:47:12.117Z,102349.11
2019-03-25T14:49:43.097Z,102355.31
2019-03-25T14:52:14.137Z,102357.78
2019-03-25T14:54:45.081Z,102356.63
2019-03-25T14:57:16.140Z,102375.54
2019-03-25T14:59:47.152Z,102375.20
2019-03-25T15:02:18.184Z,102388.63
2019-03-25T15:04:49.139Z,102392.32
2019-03-25T15:07:20.158Z,102387.45
2019-03-25T15:09:51.204Z,102389.42
2019-03-25T15:12:22.237Z,102395.02
2019-03-25T15:14:53.261Z,102405.27
2019-03-25T15:17:24.374Z,102417.64
2019-03-25T15:19:55.332Z,102405.35
2019-03-25T15:22:26.384Z,102414.88
2019-03-25T15:24:57.335Z,102412.41
2019-03-25T15:27:28.435Z,102421.77
2019-03-25T15:29:59.310Z,102426.91
2019-03-25T15:32:30.282Z,102438.55
2019-03-25T15:35:01.247Z,102432.90
2019-03-25T15:37:32.181Z,102437.45
2019-03-25T15:40:03.125Z,102448.09
2019-03-25T15:42:34.134Z,102443.55
2019-03-25T15:45:05.686Z,102459.95
2019-03-25T15:47:36.768Z,102441.92
2019-03-25T15:50:08.669Z,102449.24
2019-03-25T15:52:40.152Z,102456.08
2019-03-25T15:55:11.543Z,102456.26
2019-03-25T15:57:42.847Z,102480.39
2019-03-25T16:00:16.615Z,102477.17
2019-03-25T16:02:47.710Z,102490.24
2019-03-25T16:05:19.335Z,102490.90
2019-03-25T16:07:50.285Z,102506.31
2019-03-25T16:10:23.025Z,102496.38
2019-03-25T16:12:54.073Z,102507.41
2019-03-25T16:15:39.424Z,102509.75
2019-03-25T16:18:12.844Z,102519.39
2019-03-25T16:20:43.895Z,102519.91
2019-03-25T16:23:14.903Z,102525.60
2019-03-25T16:25:45.750Z,102532.05
2019-03-25T16:28:16.614Z,102542.52
2019-03-25T16:30:57.983Z,102535.64
2019-03-25T16:33:20.214Z,102537.02
2019-03-25T16:35:51.224Z,102548.42
2019-03-25T16:38:22.106Z,102539.63
2019-03-25T16:40:53.031Z,102557.07
2019-03-25T16:43:24.068Z,102560.30
2019-03-25T16:45:54.996Z,102570.92
2019-03-25T16:48:25.975Z,102577.70
2019-03-25T16:50:57.234Z,102570.45
2019-03-25T16:53:28.533Z,102574.20
2019-03-25T16:58:40.255Z,102584.17
2019-03-25T17:01:11.585Z,102596.13
2019-03-25T17:03:42.851Z,102598.97
2019-03-25T17:06:14.196Z,102605.77
2019-03-25T17:08:45.446Z,102613.16
2019-03-25T17:11:16.815Z,102613.63
2019-03-25T17:13:48.189Z,102622.42
2019-03-25T17:16:19.478Z,102628.02
2019-03-25T17:18:50.667Z,102622.16
2019-03-25T17:21:22.112Z,102627.97
2019-03-25T17:23:53.472Z,102630.55
2019-03-25T17:26:24.707Z,102644.34
2019-03-25T17:28:56.262Z,102642.44
2019-03-25T17:31:27.607Z,102647.67
2019-03-25T17:33:58.910Z,102650.19
2019-03-25T17:36:29.897Z,102645.24
2019-03-25T17:39:00.781Z,102643.17
2019-03-25T17:41:31.733Z,102650.30
2019-03-25T17:44:03.768Z,102661.02
2019-03-25T17:46:34.804Z,102658.75
2019-03-25T17:49:05.906Z,102664.69
2019-03-25T17:51:36.913Z,102661.01
2019-03-25T17:54:07.940Z,102674.32
2019-03-25T17:56:38.880Z,102678.06
2019-03-25T17:59:09.929Z,102679.64
2019-03-25T18:01:40.936Z,102680.84
2019-03-25T18:04:12.268Z,102697.75
2019-03-25T18:06:43.608Z,102700.64
2019-03-25T18:09:15.151Z,102707.52
2019-03-25T18:11:46.466Z,102716.55
2019-03-25T18:14:17.791Z,102719.32
2019-03-25T18:16:49.172Z,102722.97
2019-03-25T18:19:20.497Z,102730.42
2019-03-25T18:21:51.868Z,102726.73
2019-03-25T18:24:23.241Z,102730.03
2019-03-25T18:26:54.485Z,102732.33
2019-03-25T18:29:25.913Z,102736.11
2019-03-25T18:31:57.249Z,102754.94
2019-03-25T18:34:28.430Z,102749.64
2019-03-25T18:36:59.744Z,102753.48
2019-03-25T18:39:31.037Z,102753.53
2019-03-25T18:42:02.316Z,102758.33
2019-03-25T18:44:33.608Z,102776.79
2019-03-25T18:47:04.876Z,102776.49
2019-03-25T18:49:36.712Z,102790.06
2019-03-25T18:52:08.274Z,102784.97
2019-03-25T18:54:39.665Z,102785.22
2019-03-25T18:57:10.951Z,102793.73
2019-03-25T18:59:44.675Z,102787.05
2019-03-25T19:02:16.297Z,102785.11
2019-03-25T19:04:47.629Z,102786.36
2019-03-25T19:07:19.056Z,102788.55
2019-03-25T19:09:50.312Z,102791.48
2019-03-25T19:12:21.510Z,102795.09
2019-03-25T19:14:52.839Z,102794.45
2019-03-25T19:17:24.192Z,102800.36
2019-03-25T19:19:55.507Z,102798.32
2019-03-25T19:22:27.220Z,102803.72
2019-03-25T19:24:58.542Z,102799.50
2019-03-25T19:27:29.911Z,102807.92
2019-03-25T19:30:01.069Z,102811.98
2019-03-25T19:32:32.501Z,102818.67
2019-03-25T19:35:04.343Z,102822.25
2019-03-25T19:37:35.723Z,102829.03
2019-03-25T19:40:08.296Z,102836.94
2019-03-25T19:42:39.597Z,102846.05
2019-03-25T19:45:11.353Z,102843.68
2019-03-25T19:47:42.578Z,102848.23
2019-03-25T19:50:15.061Z,102858.41
2019-03-25T19:52:46.538Z,102858.26
2019-03-25T19:55:18.394Z,102855.98
2019-03-25T19:57:49.716Z,102860.36
2019-03-25T20:00:34.645Z,102862.72
2019-03-25T20:03:06.521Z,102870.05
2019-03-25T20:05:45.764Z,102866.23
2019-03-25T20:08:25.024Z,102873.53
2019-03-25T20:11:05.387Z,102881.19
2019-03-25T20:13:45.119Z,102881.51
2019-03-25T20:16:24.619Z,102893.53
2019-03-25T20:19:04.334Z,102901.85
2019-03-25T20:21:44.902Z,102907.12
2019-03-25T20:24:24.476Z,102907.87
2019-03-25T20:27:01.975Z,102913.00
2019-03-25T20:29:33.387Z,102913.06
2019-03-25T20:32:05.050Z,102917.16
2019-03-25T20:34:37.826Z,102920.64
2019-03-25T20:37:09.868Z,102933.44
2019-03-25T20:39:41.715Z,102941.24
2019-03-25T20:42:13.024Z,102943.11
2019-03-25T20:44:44.364Z,102948.24
2019-03-25T20:47:16.400Z,102953.52
2019-03-25T20:49:47.610Z,102947.41
2019-03-25T20:52:19.021Z,102951.17
2019-03-25T20:54:50.790Z,102951.33
2019-03-25T20:57:22.237Z,102957.52
2019-03-25T20:59:53.487Z,102955.80
2019-03-25T21:02:25.047Z,102958.49
2019-03-25T21:04:56.657Z,102957.34
2019-03-25T21:07:28.103Z,102960.74
2019-03-25T21:09:59.478Z,102969.87
2019-03-25T21:15:37.682Z,102965.55
2019-03-25T21:18:08.967Z,102965.27
2019-03-25T21:20:40.330Z,102973.56
2019-03-25T21:23:11.748Z,102965.55
2019-03-25T21:25:43.171Z,102966.47
2019-03-25T21:28:14.831Z,102964.09
2019-03-25T21:30:48.257Z,102964.66
2019-03-25T21:33:19.825Z,102970.34
2019-03-25T21:35:51.297Z,102973.83
2019-03-25T21:38:22.588Z,102979.55
2019-03-25T21:40:53.965Z,102990.13
2019-03-25T21:43:25.407Z,102984.16
2019-03-25T21:45:56.946Z,102985.23
2019-03-25T21:48:28.355Z,102983.03
2019-03-25T21:50:59.836Z,102993.19
2019-03-25T21:53:31.466Z,102994.25
2019-03-25T21:56:02.872Z,102993.18
2019-03-25T21:58:34.129Z,102990.48
2019-03-25T22:01:05.536Z,102995.04
2019-03-25T22:03:36.779Z,102990.70
2019-03-25T22:06:08.251Z,102990.38
2019-03-25T22:08:39.125Z,102992.98
2019-03-25T22:11:10.044Z,102999.68
2019-03-25T22:13:41.179Z,103001.38
2019-03-25T22:16:12.131Z,103012.22
2019-03-25T22:18:43.377Z,103016.41
2019-03-25T22:21:15.669Z,103012.41
2019-03-25T22:23:46.597Z,103019.27
2019-03-25T22:26:17.670Z,103018.29
2019-03-25T22:28:48.692Z,103013.81
2019-03-25T22:31:19.932Z,103006.32
2019-03-25T22:33:50.824Z,103013.73
2019-03-25T22:36:21.749Z,103016.34
2019-03-25T22:38:52.716Z,103018.48
2019-03-25T22:41:23.568Z,103019.84
2019-03-25T22:43:54.588Z,103026.77
2019-03-25T22:46:25.536Z,103012.42
2019-03-25T22:48:56.547Z,103024.16
2019-03-25T22:51:27.431Z,103018.95
2019-03-25T22:53:58.284Z,103015.53
2019-03-25T22:56:29.179Z,103017.23
2019-03-25T22:59:00.042Z,103016.75
2019-03-25T23:01:31.070Z,103012.84
2019-03-25T23:04:02.009Z,103019.45
2019-03-25T23:06:33.008Z,103013.73
2019-03-25T23:09:04.628Z,103008.09
2019-03-25T23:11:35.729Z,103015.92
2019-03-25T23:14:07.689Z,103019.45
2019-03-25T23:16:38.649Z,103019.92
2019-03-25T23:19:09.726Z,103022.53
2019-03-25T23:21:40.728Z,103025.14
2019-03-25T23:24:11.596Z,103025.55
2019-03-25T23:26:42.564Z,103023.83
2019-03-25T23:29:13.519Z,103030.36
2019-03-25T23:31:44.778Z,103025.47
2019-03-25T23:34:15.707Z,103022.86
2019-03-25T23:36:48.674Z,103021.55
2019-03-25T23:39:19.663Z,103025.05
2019-03-25T23:41:50.520Z,103022.95
2019-03-25T23:44:21.448Z,103033.94
2019-03-25T23:46:52.371Z,103038.36
2019-03-25T23:49:23.226Z,103043.06
2019-03-25T23:51:54.069Z,103034.88
2019-03-25T23:54:24.941Z,103031.05
2019-03-25T23:56:55.879Z,103032.36
2019-03-25T23:59:26.823Z,103032.95
